createdAt,value
2022-11-10T00:01:06.056Z,18.48
2022-11-10T00:03:53.183Z,20.20
2022-11-10T00:06:41.809Z,19.30
2022-11-10T00:09:29.025Z,20.17
2022-11-10T00:12:15.765Z,18.97
2022-11-10T00:15:20.056Z,18.10
2022-11-10T00:18:07.093Z,18.80
2022-11-10T00:20:54.192Z,19.00
2022-11-10T00:23:42.937Z,18.17
2022-11-10T00:26:30.395Z,19.10
2022-11-10T00:29:17.308Z,18.97
2022-11-10T00:32:04.610Z,18.87
2022-11-10T00:34:51.658Z,18.70
2022-11-10T00:37:39.121Z,18.13
2022-11-10T00:40:27.086Z,17.53
2022-11-10T00:43:13.850Z,18.63
2022-11-10T00:46:01.259Z,19.63
2022-11-10T00:48:48.454Z,18.37
2022-11-10T00:51:35.382Z,19.17
2022-11-10T00:54:22.513Z,20.33
2022-11-10T00:57:10.587Z,17.00
2022-11-10T00:59:57.990Z,18.10
2022-11-10T01:02:45.072Z,18.10
2022-11-10T01:05:32.542Z,16.93
2022-11-10T01:08:19.164Z,17.53
2022-11-10T01:11:07.777Z,17.63
2022-11-10T01:13:57.347Z,17.88
2022-11-10T01:16:44.404Z,16.77
2022-11-10T01:19:31.074Z,17.73
2022-11-10T01:22:18.353Z,19.75
2022-11-10T01:25:05.935Z,17.53
2022-11-10T01:27:53.505Z,17.30
2022-11-10T01:30:41.906Z,18.02
2022-11-10T01:33:29.418Z,17.92
2022-11-10T01:36:16.314Z,17.98
2022-11-10T01:39:03.695Z,17.30
2022-11-10T01:41:50.555Z,16.63
2022-11-10T01:44:42.781Z,16.38
2022-11-10T01:47:30.928Z,16.45
2022-11-10T01:50:18.237Z,17.30
2022-11-10T01:53:10.123Z,17.67
2022-11-10T01:55:57.936Z,16.40
2022-11-10T01:58:47.076Z,17.92
2022-11-10T02:01:34.173Z,16.93
2022-11-10T02:04:23.482Z,16.30
2022-11-10T02:07:12.059Z,18.45
2022-11-10T02:09:59.383Z,17.37
2022-11-10T02:12:47.357Z,15.82
2022-11-10T02:15:34.331Z,15.90
2022-11-10T02:18:21.132Z,16.35
2022-11-10T02:21:10.017Z,15.23
2022-11-10T02:23:57.453Z,17.02
2022-11-10T02:26:48.231Z,17.05
2022-11-10T02:29:35.548Z,17.07
2022-11-10T02:32:22.215Z,17.60
2022-11-10T02:35:10.049Z,16.70
2022-11-10T02:37:58.236Z,15.63
2022-11-10T02:40:45.424Z,14.52
2022-11-10T02:43:32.393Z,16.07
2022-11-10T02:46:19.617Z,15.73
2022-11-10T02:49:06.237Z,16.70
2022-11-10T02:51:54.806Z,15.33
2022-11-10T02:54:42.677Z,16.63
2022-11-10T02:57:29.751Z,16.40
2022-11-10T03:00:17.260Z,16.53
2022-11-10T03:03:05.165Z,16.33
2022-11-10T03:05:51.906Z,15.35
2022-11-10T03:08:39.333Z,16.60
2022-11-10T03:11:31.978Z,17.00
2022-11-10T03:14:19.737Z,15.73
2022-11-10T03:17:06.432Z,16.30
2022-11-10T03:19:53.525Z,16.17
2022-11-10T03:22:40.151Z,15.93
2022-11-10T03:25:27.223Z,14.53
2022-11-10T03:28:15.321Z,15.10
2022-11-10T03:31:02.289Z,17.80
2022-11-10T03:33:48.970Z,15.23
2022-11-10T03:36:36.178Z,14.90
2022-11-10T03:39:23.862Z,15.17
2022-11-10T03:42:11.215Z,15.00
2022-11-10T03:44:59.358Z,16.25
2022-11-10T03:47:47.429Z,16.60
2022-11-10T03:50:34.073Z,14.87
2022-11-10T03:53:21.394Z,14.53
2022-11-10T03:56:08.966Z,14.27
2022-11-10T03:58:56.043Z,14.43
2022-11-10T04:01:44.245Z,16.08
2022-11-10T04:04:57.666Z,15.03
2022-11-10T04:07:58.413Z,13.97
2022-11-10T04:10:46.177Z,15.53
2022-11-10T04:13:50.544Z,13.73
2022-11-10T04:16:37.668Z,13.27
2022-11-10T04:19:25.801Z,14.83
2022-11-10T04:22:33.245Z,14.03
2022-11-10T04:25:20.092Z,13.10
2022-11-10T04:28:07.347Z,14.50
2022-11-10T04:30:54.081Z,14.77
2022-11-10T04:33:42.435Z,13.57
2022-11-10T04:36:32.362Z,12.83
2022-11-10T04:39:19.640Z,12.77
2022-11-10T04:42:06.406Z,13.93
2022-11-10T04:44:53.538Z,13.57
2022-11-10T04:47:40.523Z,13.80
2022-11-10T04:50:27.679Z,14.50
2022-11-10T04:53:16.243Z,14.97
2022-11-10T04:56:03.305Z,14.13
2022-11-10T04:58:50.745Z,13.03
2022-11-10T05:01:37.478Z,14.33
2022-11-10T05:04:24.226Z,12.27
2022-11-10T05:07:11.486Z,12.73
2022-11-10T05:09:59.597Z,12.83
2022-11-10T05:12:46.725Z,12.00
2022-11-10T05:15:34.598Z,11.87
2022-11-10T05:18:21.897Z,13.40
2022-11-10T05:21:08.737Z,13.88
2022-11-10T05:23:55.967Z,14.73
2022-11-10T05:26:44.173Z,12.07
2022-11-10T05:29:31.391Z,12.60
2022-11-10T05:32:17.965Z,13.20
2022-11-10T05:35:06.163Z,12.37
2022-11-10T05:37:53.090Z,11.50
2022-11-10T05:40:40.508Z,11.97
2022-11-10T05:43:28.439Z,11.07
2022-11-10T05:46:15.695Z,9.93
2022-11-10T05:49:02.913Z,12.30
2022-11-10T05:51:49.884Z,11.70
2022-11-10T05:54:36.465Z,11.37
2022-11-10T05:57:23.757Z,10.75
2022-11-10T06:00:13.642Z,10.07
2022-11-10T06:03:02.519Z,10.85
2022-11-10T06:05:50.010Z,11.20
2022-11-10T06:08:37.233Z,10.00
2022-11-10T06:11:24.060Z,9.93
2022-11-10T06:14:11.254Z,9.63
2022-11-10T06:16:59.146Z,9.63
2022-11-10T06:19:46.370Z,10.03
2022-11-10T06:22:33.332Z,10.20
2022-11-10T06:25:20.713Z,10.00
2022-11-10T06:28:08.204Z,9.60
2022-11-10T06:30:58.975Z,9.83
2022-11-10T06:33:49.149Z,9.70
2022-11-10T06:36:36.448Z,10.13
2022-11-10T06:39:23.097Z,9.60
2022-11-10T06:42:10.250Z,10.03
2022-11-10T06:44:57.133Z,9.23
2022-11-10T06:47:44.335Z,10.93
2022-11-10T06:50:32.763Z,10.53
2022-11-10T06:53:23.013Z,10.67
2022-11-10T06:56:13.660Z,11.67
2022-11-10T06:59:00.911Z,10.90
2022-11-10T07:01:48.745Z,10.03
2022-11-10T07:04:35.989Z,9.40
2022-11-10T07:07:24.142Z,10.57
2022-11-10T07:10:11.242Z,10.63
2022-11-10T07:12:58.805Z,9.33
2022-11-10T07:15:45.860Z,8.93
2022-11-10T07:18:32.614Z,8.93
2022-11-10T07:21:20.220Z,9.63
2022-11-10T07:24:09.523Z,10.03
2022-11-10T07:26:56.925Z,9.60
2022-11-10T07:29:43.570Z,8.83
2022-11-10T07:32:30.970Z,10.70
2022-11-10T07:35:17.904Z,9.90
2022-11-10T07:38:06.247Z,9.37
2022-11-10T07:40:54.876Z,8.17
2022-11-10T07:43:42.267Z,9.00
2022-11-10T07:46:29.083Z,10.40
2022-11-10T07:49:16.190Z,8.97
2022-11-10T07:52:03.214Z,7.70
2022-11-10T07:54:50.270Z,7.53
2022-11-10T07:57:38.322Z,8.40
2022-11-10T08:00:25.331Z,7.73
2022-11-10T08:03:14.353Z,8.03
2022-11-10T08:06:01.473Z,7.90
2022-11-10T08:08:48.248Z,8.13
2022-11-10T08:11:35.580Z,7.05
2022-11-10T08:14:23.778Z,7.33
2022-11-10T08:17:10.630Z,6.90
2022-11-10T08:19:57.449Z,6.63
2022-11-10T08:22:46.156Z,7.22
2022-11-10T08:25:35.588Z,7.25
2022-11-10T08:28:22.786Z,6.28
2022-11-10T08:31:11.356Z,7.47
2022-11-10T08:33:58.536Z,5.97
2022-11-10T08:36:45.194Z,6.07
2022-11-10T08:39:38.899Z,5.68
2022-11-10T08:42:26.306Z,6.68
2022-11-10T08:45:13.894Z,6.82
2022-11-10T08:48:03.199Z,5.97
2022-11-10T08:50:51.445Z,5.17
2022-11-10T08:53:38.349Z,6.43
2022-11-10T08:56:25.698Z,5.90
2022-11-10T08:59:12.329Z,5.25
2022-11-10T09:01:59.972Z,4.88
2022-11-10T09:04:48.270Z,5.68
2022-11-10T09:07:43.137Z,5.80
2022-11-10T09:10:29.822Z,4.80
2022-11-10T09:13:17.677Z,4.57
2022-11-10T09:16:06.225Z,5.20
2022-11-10T09:18:53.039Z,5.20
2022-11-10T09:21:41.567Z,5.35
2022-11-10T09:24:31.517Z,5.15
2022-11-10T09:27:18.667Z,5.22
2022-11-10T09:30:08.842Z,5.97
2022-11-10T09:32:58.608Z,4.80
2022-11-10T09:35:45.594Z,4.45
2022-11-10T09:38:33.957Z,6.00
2022-11-10T09:41:21.215Z,4.95
2022-11-10T09:44:15.180Z,5.38
2022-11-10T09:47:06.360Z,4.90
2022-11-10T09:49:57.920Z,5.15
2022-11-10T09:52:48.551Z,5.30
2022-11-10T09:55:44.239Z,6.22
2022-11-10T09:58:36.028Z,4.43
2022-11-10T10:01:32.013Z,4.38
2022-11-10T10:04:33.362Z,3.42
2022-11-10T10:07:26.264Z,5.05
2022-11-10T10:10:17.712Z,4.57
2022-11-10T10:13:21.750Z,4.40
2022-11-10T10:16:18.175Z,4.75
2022-11-10T10:19:15.837Z,5.30
2022-11-10T10:22:33.682Z,4.07
2022-11-10T10:25:23.181Z,4.78
2022-11-10T10:28:17.679Z,4.00
2022-11-10T10:31:18.131Z,3.75
2022-11-10T10:34:05.903Z,4.70
2022-11-10T10:36:52.895Z,5.22
2022-11-10T10:39:45.233Z,4.10
2022-11-10T10:42:33.581Z,4.90
2022-11-10T10:45:24.432Z,4.60
2022-11-10T10:48:29.015Z,4.10
2022-11-10T10:51:30.342Z,4.78
2022-11-10T10:54:36.369Z,4.00
2022-11-10T10:57:25.041Z,4.50
2022-11-10T11:00:20.603Z,6.32
2022-11-10T11:03:14.709Z,3.88
2022-11-10T11:06:08.440Z,5.55
2022-11-10T11:09:01.574Z,3.95
2022-11-10T11:12:01.821Z,3.30
2022-11-10T11:14:48.788Z,4.35
2022-11-10T11:17:36.281Z,3.35
2022-11-10T11:20:34.586Z,3.15
2022-11-10T11:23:43.677Z,3.15
2022-11-10T11:26:41.412Z,2.97
2022-11-10T11:29:44.788Z,3.45
2022-11-10T11:32:59.405Z,3.38
2022-11-10T11:35:54.604Z,2.35
2022-11-10T11:38:53.295Z,3.08
2022-11-10T11:41:47.529Z,2.15
2022-11-10T11:44:45.224Z,3.03
2022-11-10T11:47:47.506Z,2.58
2022-11-10T11:50:41.324Z,1.90
2022-11-10T11:53:43.836Z,2.72
2022-11-10T11:56:34.175Z,2.65
2022-11-10T11:59:44.248Z,4.57
2022-11-10T12:03:10.880Z,2.38
2022-11-10T12:06:13.921Z,3.15
2022-11-10T12:09:08.847Z,3.35
2022-11-10T12:12:13.510Z,2.50
2022-11-10T12:15:08.772Z,3.00
2022-11-10T12:18:04.310Z,3.03
2022-11-10T12:21:02.050Z,3.38
2022-11-10T12:24:10.520Z,2.83
2022-11-10T12:27:00.754Z,3.67
2022-11-10T12:29:53.627Z,3.05
2022-11-10T12:32:46.664Z,3.13
2022-11-10T12:35:37.121Z,2.63
2022-11-10T12:38:28.119Z,2.95
2022-11-10T12:41:19.425Z,3.17
2022-11-10T12:44:17.364Z,3.65
2022-11-10T12:47:06.761Z,2.63
2022-11-10T12:50:00.856Z,2.30
2022-11-10T12:52:54.396Z,3.80
2022-11-10T12:55:46.687Z,2.33
2022-11-10T12:58:34.869Z,2.20
2022-11-10T13:01:22.197Z,3.95
2022-11-10T13:04:08.804Z,4.82
2022-11-10T13:06:58.525Z,2.83
2022-11-10T13:09:45.714Z,3.05
2022-11-10T13:12:33.005Z,2.70
2022-11-10T13:15:52.332Z,2.63
2022-11-10T13:19:00.641Z,3.88
2022-11-10T13:22:09.809Z,3.90
2022-11-10T13:25:30.329Z,3.85
2022-11-10T13:28:37.129Z,2.75
2022-11-10T13:31:42.875Z,2.63
2022-11-10T13:34:34.873Z,2.92
2022-11-10T13:37:50.358Z,2.15
2022-11-10T13:40:39.400Z,3.83
2022-11-10T13:43:28.516Z,3.15
2022-11-10T13:46:15.740Z,2.88
2022-11-10T13:49:29.180Z,4.95
2022-11-10T13:52:18.600Z,3.45
2022-11-10T13:55:20.112Z,2.45
2022-11-10T13:58:11.542Z,2.95
2022-11-10T14:01:29.020Z,3.22
2022-11-10T14:04:41.306Z,3.55
2022-11-10T14:07:32.255Z,2.97
2022-11-10T14:10:29.549Z,2.70
2022-11-10T14:13:21.516Z,2.55
2022-11-10T14:16:17.301Z,3.58
2022-11-10T14:19:16.955Z,5.50
2022-11-10T14:22:15.525Z,3.00
2022-11-10T14:25:06.763Z,3.40
2022-11-10T14:27:58.222Z,3.38
2022-11-10T14:30:52.340Z,3.83
2022-11-10T14:33:39.202Z,3.35
2022-11-10T14:36:26.650Z,4.57
2022-11-10T14:39:18.038Z,5.15
2022-11-10T14:42:06.590Z,4.38
2022-11-10T14:45:07.417Z,6.00
2022-11-10T14:47:55.907Z,4.63
2022-11-10T14:50:42.508Z,5.07
2022-11-10T14:53:34.024Z,4.43
2022-11-10T14:56:30.418Z,4.38
2022-11-10T14:59:19.472Z,4.65
2022-11-10T15:02:15.792Z,4.10
2022-11-10T15:05:03.887Z,5.35
2022-11-10T15:07:54.781Z,4.88
2022-11-10T15:10:47.471Z,5.07
2022-11-10T15:13:38.938Z,5.35
2022-11-10T15:16:27.900Z,6.40
2022-11-10T15:19:22.638Z,6.95
2022-11-10T15:22:18.131Z,5.88
2022-11-10T15:25:14.393Z,5.55
2022-11-10T15:28:04.820Z,7.65
2022-11-10T15:30:57.610Z,6.80
2022-11-10T15:33:48.816Z,7.82
2022-11-10T15:36:39.565Z,9.35
2022-11-10T15:39:27.898Z,10.98
2022-11-10T15:42:16.557Z,8.80
2022-11-10T15:45:03.797Z,7.85
2022-11-10T15:47:52.443Z,9.38
2022-11-10T15:50:39.863Z,8.35
2022-11-10T15:53:28.989Z,9.32
2022-11-10T15:56:17.805Z,12.15
2022-11-10T15:59:05.057Z,12.27
2022-11-10T16:01:52.514Z,9.05
2022-11-10T16:04:40.948Z,8.82
2022-11-10T16:07:27.877Z,9.07
2022-11-10T16:10:15.023Z,9.82
2022-11-10T16:13:02.232Z,10.38
2022-11-10T16:15:49.550Z,10.00
2022-11-10T16:18:40.022Z,9.05
2022-11-10T16:21:31.751Z,9.40
2022-11-10T16:24:18.980Z,9.82
2022-11-10T16:27:06.884Z,8.57
2022-11-10T16:29:53.784Z,9.15
2022-11-10T16:32:40.455Z,11.20
2022-11-10T16:35:28.029Z,10.02
2022-11-10T16:38:20.812Z,10.38
2022-11-10T16:41:13.788Z,10.30
2022-11-10T16:44:00.898Z,8.20
2022-11-10T16:46:53.914Z,9.07
2022-11-10T16:49:44.660Z,8.82
2022-11-10T16:52:31.726Z,8.95
2022-11-10T16:55:20.027Z,8.60
2022-11-10T16:58:07.601Z,10.57
2022-11-10T17:00:56.845Z,9.00
2022-11-10T17:03:47.606Z,10.15
2022-11-10T17:06:34.575Z,12.05
2022-11-10T17:09:26.085Z,10.63
2022-11-10T17:12:15.663Z,11.30
2022-11-10T17:15:03.591Z,10.57
2022-11-10T17:17:58.837Z,9.38
2022-11-10T17:20:51.200Z,9.65
2022-11-10T17:23:38.267Z,10.60
2022-11-10T17:26:26.238Z,11.85
2022-11-10T17:29:22.367Z,11.07
2022-11-10T17:32:09.745Z,10.65
2022-11-10T17:34:57.385Z,10.57
2022-11-10T17:37:50.645Z,11.20
2022-11-10T17:40:37.752Z,10.35
2022-11-10T17:43:25.887Z,11.65
2022-11-10T17:46:15.052Z,10.52
2022-11-10T17:49:03.285Z,10.95
2022-11-10T17:51:50.453Z,11.20
2022-11-10T17:54:37.903Z,10.40
2022-11-10T17:57:24.902Z,10.15
2022-11-10T18:00:13.475Z,10.07
2022-11-10T18:03:02.786Z,10.27
2022-11-10T18:05:50.725Z,9.70
2022-11-10T18:08:38.535Z,9.82
2022-11-10T18:11:25.669Z,9.63
2022-11-10T18:14:13.119Z,10.82
2022-11-10T18:17:00.500Z,11.38
2022-11-10T18:19:48.834Z,10.00
2022-11-10T18:22:35.910Z,10.52
2022-11-10T18:25:24.343Z,9.30
2022-11-10T18:28:16.458Z,9.18
2022-11-10T18:31:08.657Z,9.85
2022-11-10T18:33:56.893Z,8.88
2022-11-10T18:36:46.178Z,9.52
2022-11-10T18:39:34.767Z,9.35
2022-11-10T18:42:23.603Z,8.80
2022-11-10T18:45:13.640Z,9.30
2022-11-10T18:48:07.278Z,8.57
2022-11-10T18:50:55.894Z,10.10
2022-11-10T18:53:45.756Z,8.82
2022-11-10T18:56:34.524Z,8.60
2022-11-10T18:59:22.726Z,8.23
2022-11-10T19:02:13.956Z,9.02
2022-11-10T19:05:05.638Z,7.82
2022-11-10T19:07:55.195Z,9.43
2022-11-10T19:10:45.649Z,10.52
2022-11-10T19:13:35.278Z,9.80
2022-11-10T19:16:23.629Z,9.77
2022-11-10T19:19:13.536Z,10.10
2022-11-10T19:22:02.011Z,9.25
2022-11-10T19:28:01.068Z,10.10
2022-11-10T19:30:49.990Z,9.23
2022-11-10T19:33:40.560Z,10.07
2022-11-10T19:36:30.268Z,9.52
2022-11-10T19:39:18.722Z,11.68
2022-11-10T19:42:07.953Z,9.95
2022-11-10T19:44:58.038Z,10.43
2022-11-10T19:47:47.012Z,10.15
2022-11-10T19:50:35.449Z,11.38
2022-11-10T19:53:24.734Z,10.80
2022-11-10T19:56:16.814Z,12.07
2022-11-10T19:59:06.379Z,11.15
2022-11-10T20:01:59.424Z,12.45
2022-11-10T20:05:05.267Z,9.85
2022-11-10T20:08:10.547Z,11.18
2022-11-10T20:11:01.601Z,12.88
2022-11-10T20:13:54.414Z,12.48
2022-11-10T20:16:42.753Z,11.07
2022-11-10T20:19:40.865Z,10.40
2022-11-10T20:22:28.495Z,10.00
2022-11-10T20:25:16.007Z,10.80
2022-11-10T20:28:05.972Z,11.02
2022-11-10T20:30:55.941Z,9.82
2022-11-10T20:33:43.736Z,10.93
2022-11-10T20:36:33.916Z,10.10
2022-11-10T20:39:21.214Z,10.90
2022-11-10T20:42:08.031Z,10.70
2022-11-10T20:44:55.494Z,9.60
2022-11-10T20:47:42.447Z,9.82
2022-11-10T20:50:29.310Z,10.98
2022-11-10T20:53:17.249Z,10.73
2022-11-10T20:56:05.006Z,10.05
2022-11-10T20:58:53.545Z,10.75
2022-11-10T21:01:40.529Z,10.90
2022-11-10T21:04:27.627Z,10.65
2022-11-10T21:07:14.757Z,10.43
2022-11-10T21:10:03.346Z,10.68
2022-11-10T21:12:50.220Z,9.35
2022-11-10T21:15:39.457Z,10.32
2022-11-10T21:18:28.501Z,10.80
2022-11-10T21:21:22.607Z,10.32
2022-11-10T21:24:10.617Z,9.73
2022-11-10T21:26:59.127Z,10.55
2022-11-10T21:29:46.457Z,10.90
2022-11-10T21:32:33.380Z,10.13
2022-11-10T21:35:21.107Z,9.43
2022-11-10T21:38:08.230Z,9.07
2022-11-10T21:40:55.470Z,8.77
2022-11-10T21:43:43.447Z,9.33
2022-11-10T21:46:30.650Z,9.03
2022-11-10T21:49:17.384Z,9.98
2022-11-10T21:52:04.637Z,8.17
2022-11-10T21:54:51.299Z,9.23
2022-11-10T21:57:38.458Z,9.15
2022-11-10T22:00:27.653Z,8.73
2022-11-10T22:03:14.659Z,9.88
2022-11-10T22:06:04.616Z,7.83
2022-11-10T22:08:51.341Z,8.75
2022-11-10T22:11:57.890Z,8.25
2022-11-10T22:15:02.848Z,10.00
2022-11-10T22:18:08.283Z,8.80
2022-11-10T22:20:55.488Z,10.02
2022-11-10T22:24:08.294Z,11.13
2022-11-10T22:26:57.190Z,9.10
2022-11-10T22:29:44.384Z,8.00
2022-11-10T22:32:31.285Z,7.88
2022-11-10T22:35:33.583Z,6.72
2022-11-10T22:38:20.591Z,7.43
2022-11-10T22:41:29.752Z,8.00
2022-11-10T22:44:18.623Z,7.40
2022-11-10T22:47:06.364Z,6.78
2022-11-10T22:49:53.660Z,6.60
2022-11-10T22:52:41.539Z,8.50
2022-11-10T22:55:28.424Z,7.75
2022-11-10T22:58:15.370Z,8.40
2022-11-10T23:01:07.431Z,7.32
2022-11-10T23:03:54.166Z,7.13
2022-11-10T23:06:41.105Z,7.40
2022-11-10T23:09:29.434Z,7.72
2022-11-10T23:12:18.296Z,7.68
2022-11-10T23:15:05.584Z,7.75
2022-11-10T23:17:52.742Z,6.75
2022-11-10T23:20:39.391Z,7.37
2022-11-10T23:23:27.281Z,7.63
2022-11-10T23:26:17.499Z,7.28
2022-11-10T23:29:04.748Z,6.22
2022-11-10T23:31:51.512Z,6.83
2022-11-10T23:34:38.550Z,6.38
2022-11-10T23:37:25.383Z,7.13
2022-11-10T23:40:13.385Z,6.28
2022-11-10T23:43:01.617Z,6.35
2022-11-10T23:46:05.823Z,7.03
2022-11-10T23:48:53.723Z,6.43
2022-11-10T23:51:40.921Z,6.67
2022-11-10T23:54:27.492Z,7.17
2022-11-10T23:57:14.846Z,7.07
